createdAt,value
2023-05-21T00:02:20.979Z,14.71
2023-05-21T00:04:47.742Z,14.69
2023-05-21T00:07:15.443Z,14.66
2023-05-21T00:09:42.070Z,14.66
2023-05-21T00:12:09.342Z,14.65
2023-05-21T00:14:36.220Z,14.65
2023-05-21T00:17:03.157Z,14.70
2023-05-21T00:19:29.898Z,14.66
2023-05-21T00:21:57.674Z,14.67
2023-05-21T00:24:24.226Z,14.65
2023-05-21T00:26:51.009Z,14.69
2023-05-21T00:29:17.480Z,14.67
2023-05-21T00:31:44.040Z,14.62
2023-05-21T00:34:10.677Z,14.63
2023-05-21T00:36:37.258Z,14.62
2023-05-21T00:39:06.963Z,14.60
2023-05-21T00:41:35.354Z,14.61
2023-05-21T00:44:05.526Z,14.58
2023-05-21T00:46:32.469Z,14.59
2023-05-21T00:48:59.247Z,14.58
2023-05-21T00:51:30.182Z,14.58
2023-05-21T00:53:57.894Z,14.58
2023-05-21T00:56:27.164Z,14.55
2023-05-21T00:58:56.057Z,14.57
2023-05-21T01:01:27.478Z,14.54
2023-05-21T01:03:57.523Z,14.52
2023-05-21T01:06:24.074Z,14.55
2023-05-21T01:08:50.987Z,14.54
2023-05-21T01:11:18.937Z,14.50
2023-05-21T01:13:47.578Z,14.50
2023-05-21T01:16:14.266Z,14.46
2023-05-21T01:18:43.468Z,14.47
2023-05-21T01:21:10.375Z,14.45
2023-05-21T01:23:37.133Z,14.43
2023-05-21T01:26:03.662Z,14.37
2023-05-21T01:28:30.158Z,14.36
2023-05-21T01:30:59.670Z,14.37
2023-05-21T01:33:36.242Z,14.36
2023-05-21T01:36:13.928Z,14.30
2023-05-21T01:38:51.256Z,14.28
2023-05-21T01:41:19.891Z,14.29
2023-05-21T01:43:47.428Z,14.24
2023-05-21T01:46:19.882Z,14.26
2023-05-21T01:48:47.626Z,14.23
2023-05-21T01:51:14.774Z,14.20
2023-05-21T01:53:41.496Z,14.25
2023-05-21T01:56:08.377Z,14.20
2023-05-21T01:58:34.894Z,14.23
2023-05-21T02:01:02.796Z,14.20
2023-05-21T02:03:31.085Z,14.23
2023-05-21T02:05:57.927Z,14.20
2023-05-21T02:08:25.557Z,14.19
2023-05-21T02:10:52.214Z,14.17
2023-05-21T02:13:24.074Z,14.14
2023-05-21T02:15:54.777Z,14.18
2023-05-21T02:18:21.940Z,14.13
2023-05-21T02:20:48.464Z,14.13
2023-05-21T02:23:14.982Z,14.08
2023-05-21T02:25:41.572Z,14.03
2023-05-21T02:28:08.156Z,14.03
2023-05-21T02:30:35.254Z,14.04
2023-05-21T02:33:02.903Z,14.02
2023-05-21T02:35:29.620Z,14.04
2023-05-21T02:37:59.239Z,14.01
2023-05-21T02:40:26.117Z,14.01
2023-05-21T02:42:52.608Z,14.01
2023-05-21T02:45:19.157Z,13.98
2023-05-21T02:47:45.702Z,14.00
2023-05-21T02:50:14.143Z,13.98
2023-05-21T02:52:41.600Z,13.96
2023-05-21T02:55:08.688Z,13.92
2023-05-21T02:57:35.209Z,13.95
2023-05-21T03:00:01.763Z,13.96
2023-05-21T03:02:28.296Z,13.95
2023-05-21T03:04:55.629Z,13.93
2023-05-21T03:07:22.525Z,13.92
2023-05-21T03:09:49.174Z,13.89
2023-05-21T03:12:15.775Z,13.89
2023-05-21T03:14:44.217Z,13.89
2023-05-21T03:17:13.976Z,13.88
2023-05-21T03:19:41.891Z,13.87
2023-05-21T03:22:08.902Z,13.91
2023-05-21T03:24:36.897Z,13.88
2023-05-21T03:27:05.892Z,13.86
2023-05-21T03:29:32.777Z,13.88
2023-05-21T03:32:00.552Z,13.84
2023-05-21T03:34:27.156Z,13.86
2023-05-21T03:36:53.723Z,13.83
2023-05-21T03:39:20.364Z,13.85
2023-05-21T03:41:47.020Z,13.84
2023-05-21T03:44:13.600Z,13.85
2023-05-21T03:46:40.175Z,13.91
2023-05-21T03:49:06.794Z,13.94
2023-05-21T03:51:33.386Z,13.95
2023-05-21T03:54:00.259Z,13.95
2023-05-21T03:56:26.889Z,13.94
2023-05-21T03:58:53.755Z,13.93
2023-05-21T04:01:20.416Z,13.93
2023-05-21T04:03:47.199Z,13.97
2023-05-21T04:06:14.023Z,13.96
2023-05-21T04:08:40.583Z,13.98
2023-05-21T04:11:07.123Z,13.95
2023-05-21T04:13:33.681Z,13.96
2023-05-21T04:16:00.349Z,13.90
2023-05-21T04:18:26.968Z,13.94
2023-05-21T04:20:53.959Z,13.91
2023-05-21T04:23:23.745Z,13.82
2023-05-21T04:25:51.028Z,13.88
2023-05-21T04:28:21.045Z,13.84
2023-05-21T04:30:48.087Z,13.87
2023-05-21T04:33:18.071Z,13.82
2023-05-21T04:35:47.448Z,13.78
2023-05-21T04:38:14.139Z,13.84
2023-05-21T04:40:40.746Z,13.82
2023-05-21T04:43:08.122Z,13.82
2023-05-21T04:45:34.967Z,13.82
2023-05-21T04:48:02.789Z,13.84
2023-05-21T04:50:32.003Z,13.83
2023-05-21T04:52:59.614Z,13.83
2023-05-21T04:55:27.492Z,13.84
2023-05-21T04:57:54.069Z,13.84
2023-05-21T05:00:20.970Z,13.81
2023-05-21T05:02:47.601Z,13.78
2023-05-21T05:05:14.328Z,13.84
2023-05-21T05:07:41.038Z,13.85
2023-05-21T05:10:08.220Z,13.85
2023-05-21T05:12:34.760Z,13.90
2023-05-21T05:15:01.258Z,13.91
2023-05-21T05:17:27.855Z,13.93
2023-05-21T05:19:54.366Z,13.93
2023-05-21T05:22:20.926Z,13.95
2023-05-21T05:24:47.411Z,13.98
2023-05-21T05:27:13.960Z,13.98
2023-05-21T05:29:40.448Z,14.02
2023-05-21T05:32:07.574Z,13.97
2023-05-21T05:34:34.097Z,14.03
2023-05-21T05:37:02.714Z,14.03
2023-05-21T05:39:29.249Z,14.05
2023-05-21T05:41:55.819Z,14.10
2023-05-21T05:44:22.368Z,14.14
2023-05-21T05:46:48.838Z,14.15
2023-05-21T05:49:15.503Z,14.15
2023-05-21T05:51:42.166Z,14.17
2023-05-21T05:54:08.713Z,14.18
2023-05-21T05:56:35.218Z,14.20
2023-05-21T05:59:01.819Z,14.17
2023-05-21T06:01:28.320Z,14.19
2023-05-21T06:03:55.007Z,14.23
2023-05-21T06:06:21.638Z,14.23
2023-05-21T06:08:48.198Z,14.30
2023-05-21T06:11:17.242Z,14.35
2023-05-21T06:13:43.848Z,14.46
2023-05-21T06:16:10.407Z,14.50
2023-05-21T06:18:37.556Z,14.61
2023-05-21T06:21:04.068Z,14.63
2023-05-21T06:23:32.656Z,14.72
2023-05-21T06:25:59.288Z,14.80
2023-05-21T06:28:25.836Z,14.88
2023-05-21T06:30:52.396Z,14.95
2023-05-21T06:33:19.122Z,15.10
2023-05-21T06:35:45.815Z,15.16
2023-05-21T06:38:12.390Z,15.20
2023-05-21T06:40:38.903Z,15.19
2023-05-21T06:43:05.553Z,15.19
2023-05-21T06:45:32.146Z,15.12
2023-05-21T06:47:58.846Z,15.16
2023-05-21T06:50:25.457Z,15.14
2023-05-21T06:52:51.964Z,15.12
2023-05-21T06:55:18.476Z,15.14
2023-05-21T06:57:45.000Z,15.23
2023-05-21T07:00:12.317Z,15.24
2023-05-21T07:02:38.959Z,15.24
2023-05-21T07:05:05.942Z,15.29
2023-05-21T07:07:34.805Z,15.31
2023-05-21T07:10:01.472Z,15.32
2023-05-21T07:12:27.948Z,15.31
2023-05-21T07:14:54.455Z,15.39
2023-05-21T07:17:20.996Z,15.50
2023-05-21T07:19:47.513Z,15.65
2023-05-21T07:22:14.513Z,15.75
2023-05-21T07:24:41.036Z,15.84
2023-05-21T07:27:17.755Z,15.83
2023-05-21T07:29:51.036Z,15.89
2023-05-21T07:32:17.612Z,15.98
2023-05-21T07:34:44.151Z,16.05
2023-05-21T07:37:10.747Z,16.10
2023-05-21T07:39:37.822Z,16.10
2023-05-21T07:42:04.482Z,16.08
2023-05-21T07:44:31.922Z,16.10
2023-05-21T07:46:58.514Z,16.23
2023-05-21T07:49:25.136Z,16.34
2023-05-21T07:51:51.702Z,16.48
2023-05-21T07:54:19.616Z,16.52
2023-05-21T07:56:46.199Z,16.56
2023-05-21T07:59:14.875Z,16.65
2023-05-21T08:01:41.967Z,16.67
2023-05-21T08:04:08.880Z,16.70
2023-05-21T08:06:37.543Z,16.74
2023-05-21T08:09:06.078Z,16.83
2023-05-21T08:11:33.107Z,16.91
2023-05-21T08:14:00.337Z,16.87
2023-05-21T08:16:27.042Z,16.83
2023-05-21T08:18:53.639Z,16.84
2023-05-21T08:21:20.243Z,16.92
2023-05-21T08:23:46.843Z,17.07
2023-05-21T08:26:16.308Z,17.15
2023-05-21T08:28:43.006Z,17.18
2023-05-21T08:31:09.542Z,17.27
2023-05-21T08:33:38.990Z,17.24
2023-05-21T08:36:06.733Z,17.11
2023-05-21T08:38:34.014Z,17.09
2023-05-21T08:41:00.762Z,17.08
2023-05-21T08:43:28.397Z,17.12
2023-05-21T08:45:59.070Z,17.15
2023-05-21T08:48:25.876Z,17.32
2023-05-21T08:50:54.699Z,17.45
2023-05-21T08:53:28.013Z,17.56
2023-05-21T08:55:56.260Z,17.68
2023-05-21T08:58:23.204Z,17.84
2023-05-21T09:00:49.756Z,17.89
2023-05-21T09:03:16.954Z,18.01
2023-05-21T09:05:45.184Z,18.17
2023-05-21T09:08:34.517Z,18.27
2023-05-21T09:11:02.216Z,18.40
2023-05-21T09:13:31.514Z,18.45
2023-05-21T09:15:58.833Z,18.51
2023-05-21T09:18:27.573Z,18.55
2023-05-21T09:20:54.164Z,18.50
2023-05-21T09:23:20.691Z,18.44
2023-05-21T09:25:48.961Z,18.41
2023-05-21T09:28:16.979Z,18.44
2023-05-21T09:30:53.583Z,18.48
2023-05-21T09:33:27.638Z,18.74
2023-05-21T09:35:54.197Z,18.90
2023-05-21T09:38:24.688Z,18.95
2023-05-21T09:40:51.276Z,19.00
2023-05-21T09:43:18.168Z,19.05
2023-05-21T09:45:55.353Z,19.05
2023-05-21T09:48:44.064Z,19.16
2023-05-21T09:51:18.420Z,19.35
2023-05-21T09:53:52.338Z,19.35
2023-05-21T09:56:26.770Z,19.45
2023-05-21T09:59:00.198Z,19.60
2023-05-21T10:01:27.541Z,19.59
2023-05-21T10:03:56.902Z,19.71
2023-05-21T10:06:29.010Z,19.63
2023-05-21T10:08:56.947Z,19.48
2023-05-21T10:11:29.779Z,19.45
2023-05-21T10:14:14.730Z,19.47
2023-05-21T10:16:42.860Z,19.64
2023-05-21T10:19:13.116Z,19.54
2023-05-21T10:21:40.974Z,19.48
2023-05-21T10:24:11.045Z,19.47
2023-05-21T10:26:38.462Z,19.59
2023-05-21T10:29:05.071Z,19.76
2023-05-21T10:31:33.205Z,20.02
2023-05-21T10:34:00.601Z,19.94
2023-05-21T10:36:33.524Z,19.99
2023-05-21T10:39:00.587Z,20.03
2023-05-21T10:41:28.189Z,20.11
2023-05-21T10:44:06.443Z,20.06
2023-05-21T10:47:04.088Z,20.29
2023-05-21T10:49:48.066Z,20.26
2023-05-21T10:52:39.634Z,20.03
2023-05-21T10:55:27.726Z,20.00
2023-05-21T10:58:31.870Z,19.89
2023-05-21T11:00:59.978Z,19.81
2023-05-21T11:03:27.480Z,19.84
2023-05-21T11:05:56.299Z,20.21
2023-05-21T11:08:31.776Z,20.26
2023-05-21T11:10:59.045Z,20.12
2023-05-21T11:13:27.228Z,19.92
2023-05-21T11:16:00.153Z,19.85
2023-05-21T11:18:35.664Z,19.91
2023-05-21T11:21:06.384Z,20.12
2023-05-21T11:23:51.389Z,20.19
2023-05-21T11:26:26.927Z,20.35
2023-05-21T11:29:11.863Z,20.62
2023-05-21T11:31:38.756Z,20.83
2023-05-21T11:34:12.505Z,20.94
2023-05-21T11:36:40.080Z,21.08
2023-05-21T11:39:23.911Z,21.23
2023-05-21T11:42:04.312Z,21.21
2023-05-21T11:44:48.469Z,21.23
2023-05-21T11:47:19.502Z,21.09
2023-05-21T11:49:46.671Z,21.02
2023-05-21T11:52:14.244Z,21.23
2023-05-21T11:54:48.558Z,21.33
2023-05-21T11:57:21.802Z,21.63
2023-05-21T11:59:51.484Z,21.50
2023-05-21T12:02:20.140Z,21.49
2023-05-21T12:04:48.959Z,21.52
2023-05-21T12:07:17.311Z,21.55
2023-05-21T12:09:48.797Z,21.80
2023-05-21T12:12:17.216Z,21.83
2023-05-21T12:14:49.016Z,22.02
2023-05-21T12:17:18.070Z,21.94
2023-05-21T12:19:47.576Z,21.79
2023-05-21T12:22:16.558Z,21.93
2023-05-21T12:24:44.553Z,22.03
2023-05-21T12:27:13.264Z,21.99
2023-05-21T12:29:42.469Z,22.09
2023-05-21T12:32:12.499Z,22.03
2023-05-21T12:34:50.474Z,21.91
2023-05-21T12:37:22.229Z,21.81
2023-05-21T12:39:53.128Z,21.65
2023-05-21T12:42:30.602Z,21.80
2023-05-21T12:44:58.095Z,21.83
2023-05-21T12:47:28.945Z,21.83
2023-05-21T12:49:58.725Z,21.95
2023-05-21T12:52:27.205Z,22.15
2023-05-21T12:54:57.670Z,22.16
2023-05-21T12:57:43.947Z,21.97
2023-05-21T13:00:11.276Z,21.94
2023-05-21T13:02:42.856Z,21.99
2023-05-21T13:05:17.074Z,21.96
2023-05-21T13:07:46.668Z,22.01
2023-05-21T13:10:13.907Z,22.10
2023-05-21T13:12:42.221Z,22.20
2023-05-21T13:15:10.789Z,22.32
2023-05-21T13:17:37.333Z,22.45
2023-05-21T13:20:13.667Z,22.51
2023-05-21T13:22:42.711Z,22.50
2023-05-21T13:25:11.437Z,22.36
2023-05-21T13:27:39.302Z,22.25
2023-05-21T13:30:07.042Z,22.27
2023-05-21T13:32:33.945Z,22.46
2023-05-21T13:35:00.618Z,22.68
2023-05-21T13:37:27.163Z,22.79
2023-05-21T13:39:53.688Z,22.81
2023-05-21T13:42:21.137Z,22.82
2023-05-21T13:44:48.088Z,22.89
2023-05-21T13:47:14.729Z,23.27
2023-05-21T13:49:41.387Z,23.09
2023-05-21T13:52:08.920Z,23.21
2023-05-21T13:54:36.222Z,23.49
2023-05-21T13:57:03.485Z,23.70
2023-05-21T13:59:32.634Z,23.60
2023-05-21T14:02:00.272Z,23.39
2023-05-21T14:04:26.839Z,23.48
2023-05-21T14:06:53.537Z,23.60
2023-05-21T14:09:20.359Z,23.63
2023-05-21T14:11:47.084Z,23.74
2023-05-21T14:14:18.778Z,23.72
2023-05-21T14:16:47.187Z,23.68
2023-05-21T14:19:14.028Z,23.81
2023-05-21T14:21:41.076Z,23.80
2023-05-21T14:24:07.741Z,23.63
2023-05-21T14:26:36.667Z,23.98
2023-05-21T14:29:05.062Z,24.00
2023-05-21T14:31:31.668Z,23.71
2023-05-21T14:33:58.202Z,23.61
2023-05-21T14:36:24.744Z,23.80
2023-05-21T14:38:51.335Z,23.93
2023-05-21T14:41:17.815Z,23.82
2023-05-21T14:43:45.467Z,23.79
2023-05-21T14:46:12.083Z,24.11
2023-05-21T14:48:38.658Z,24.39
2023-05-21T14:51:05.223Z,24.40
2023-05-21T14:53:32.272Z,24.36
2023-05-21T14:55:58.893Z,24.09
2023-05-21T14:58:25.354Z,23.99
2023-05-21T15:00:51.842Z,24.08
2023-05-21T15:03:18.466Z,24.07
2023-05-21T15:05:44.997Z,24.06
2023-05-21T15:08:11.495Z,24.36
2023-05-21T15:10:38.257Z,24.25
2023-05-21T15:13:04.812Z,24.02
2023-05-21T15:15:31.392Z,24.20
2023-05-21T15:17:58.099Z,24.21
2023-05-21T15:20:24.713Z,24.14
2023-05-21T15:22:53.488Z,24.19
2023-05-21T15:25:23.624Z,24.32
2023-05-21T15:27:50.697Z,24.17
2023-05-21T15:30:17.428Z,24.23
2023-05-21T15:32:44.121Z,23.85
2023-05-21T15:35:10.691Z,23.96
2023-05-21T15:37:37.339Z,24.04
2023-05-21T15:40:04.572Z,23.87
2023-05-21T15:42:31.876Z,23.82
2023-05-21T15:44:58.585Z,23.82
2023-05-21T15:47:25.190Z,23.84
2023-05-21T15:49:52.966Z,23.73
2023-05-21T15:52:20.017Z,23.64
2023-05-21T15:54:47.073Z,23.67
2023-05-21T15:57:13.636Z,23.55
2023-05-21T15:59:40.199Z,23.56
2023-05-21T16:02:07.963Z,23.56
2023-05-21T16:04:34.783Z,23.29
2023-05-21T16:07:01.409Z,23.18
2023-05-21T16:09:27.928Z,22.82
2023-05-21T16:11:54.532Z,22.56
2023-05-21T16:14:21.024Z,22.24
2023-05-21T16:16:47.578Z,22.01
2023-05-21T16:19:14.185Z,21.82
2023-05-21T16:21:41.549Z,21.61
2023-05-21T16:24:08.105Z,21.62
2023-05-21T16:26:34.586Z,21.59
2023-05-21T16:29:02.266Z,21.46
2023-05-21T16:31:29.075Z,21.38
2023-05-21T16:33:55.881Z,21.22
2023-05-21T16:36:22.440Z,21.15
2023-05-21T16:38:48.921Z,20.97
2023-05-21T16:41:15.629Z,20.88
2023-05-21T16:43:42.155Z,20.83
2023-05-21T16:46:08.763Z,20.84
2023-05-21T16:48:37.372Z,20.84
2023-05-21T16:51:04.650Z,20.79
2023-05-21T16:53:31.378Z,20.71
2023-05-21T16:55:57.948Z,20.75
2023-05-21T16:58:24.548Z,20.74
2023-05-21T17:00:51.094Z,20.73
2023-05-21T17:03:18.153Z,20.70
2023-05-21T17:05:44.760Z,20.58
2023-05-21T17:08:11.364Z,20.51
2023-05-21T17:10:37.893Z,20.39
2023-05-21T17:13:17.737Z,20.28
2023-05-21T17:15:48.555Z,20.19
2023-05-21T17:18:15.323Z,20.12
2023-05-21T17:20:43.666Z,20.10
2023-05-21T17:23:11.030Z,20.06
2023-05-21T17:25:37.892Z,19.92
2023-05-21T17:28:04.876Z,19.84
2023-05-21T17:30:31.413Z,19.78
2023-05-21T17:32:58.384Z,19.73
2023-05-21T17:35:25.110Z,19.69
2023-05-21T17:37:53.272Z,19.68
2023-05-21T17:40:21.360Z,19.63
2023-05-21T17:42:48.034Z,19.60
2023-05-21T17:45:14.623Z,19.54
2023-05-21T17:47:41.180Z,19.48
2023-05-21T17:50:08.609Z,19.41
2023-05-21T17:52:35.092Z,19.39
2023-05-21T17:55:01.889Z,19.37
2023-05-21T17:57:28.611Z,19.36
2023-05-21T17:59:55.586Z,19.32
2023-05-21T18:02:23.513Z,19.22
2023-05-21T18:04:50.090Z,19.18
2023-05-21T18:07:16.753Z,19.15
2023-05-21T18:09:43.268Z,19.10
2023-05-21T18:12:09.803Z,19.04
2023-05-21T18:14:36.442Z,19.00
2023-05-21T18:17:03.053Z,18.97
2023-05-21T18:19:31.781Z,18.99
2023-05-21T18:21:58.365Z,18.98
2023-05-21T18:24:25.655Z,18.94
2023-05-21T18:26:52.195Z,18.92
2023-05-21T18:29:18.769Z,18.88
2023-05-21T18:31:45.505Z,18.86
2023-05-21T18:34:13.042Z,18.81
2023-05-21T18:36:40.172Z,18.79
2023-05-21T18:39:07.954Z,18.77
2023-05-21T18:41:34.663Z,18.76
2023-05-21T18:44:01.913Z,18.70
2023-05-21T18:46:28.999Z,18.66
2023-05-21T18:48:56.373Z,18.61
2023-05-21T18:51:22.950Z,18.57
2023-05-21T18:53:49.553Z,18.54
2023-05-21T18:56:17.084Z,18.47
2023-05-21T18:58:43.595Z,18.42
2023-05-21T19:01:10.453Z,18.38
2023-05-21T19:03:38.062Z,18.35
2023-05-21T19:06:04.743Z,18.22
2023-05-21T19:08:31.257Z,18.21
2023-05-21T19:10:57.835Z,18.15
2023-05-21T19:13:24.465Z,18.11
2023-05-21T19:15:51.265Z,18.02
2023-05-21T19:18:17.860Z,17.98
2023-05-21T19:20:44.385Z,17.91
2023-05-21T19:23:10.940Z,17.83
2023-05-21T19:25:38.298Z,17.81
2023-05-21T19:28:05.008Z,17.80
2023-05-21T19:30:33.546Z,17.73
2023-05-21T19:33:00.246Z,17.64
2023-05-21T19:35:26.781Z,17.58
2023-05-21T19:37:54.800Z,17.51
2023-05-21T19:40:23.107Z,17.43
2023-05-21T19:42:49.641Z,17.39
2023-05-21T19:45:16.174Z,17.31
2023-05-21T19:47:43.337Z,17.27
2023-05-21T19:50:10.904Z,17.25
2023-05-21T19:52:38.699Z,17.15
2023-05-21T19:55:08.563Z,17.15
2023-05-21T19:57:35.067Z,17.08
2023-05-21T20:00:01.663Z,17.02
2023-05-21T20:02:31.480Z,16.98
2023-05-21T20:04:59.027Z,16.93
2023-05-21T20:07:25.812Z,16.91
2023-05-21T20:09:52.462Z,16.86
2023-05-21T20:12:19.290Z,16.82
2023-05-21T20:14:46.891Z,16.76
2023-05-21T20:17:14.395Z,16.72
2023-05-21T20:19:41.103Z,16.67
2023-05-21T20:22:07.683Z,16.59
2023-05-21T20:24:34.258Z,16.57
2023-05-21T20:27:01.683Z,16.53
2023-05-21T20:29:29.110Z,16.48
2023-05-21T20:31:55.640Z,16.48
2023-05-21T20:34:22.221Z,16.43
2023-05-21T20:36:49.290Z,16.38
2023-05-21T20:39:15.984Z,16.35
2023-05-21T20:41:44.547Z,16.32
2023-05-21T20:44:11.921Z,16.28
2023-05-21T20:46:39.008Z,16.26
2023-05-21T20:49:06.226Z,16.20
2023-05-21T20:51:33.286Z,16.17
2023-05-21T20:53:59.830Z,16.15
2023-05-21T20:56:40.732Z,16.13
2023-05-21T20:59:10.464Z,16.11
2023-05-21T21:01:37.958Z,16.04
2023-05-21T21:04:05.050Z,16.02
2023-05-21T21:06:31.927Z,15.99
2023-05-21T21:08:58.766Z,15.97
2023-05-21T21:11:26.643Z,15.96
2023-05-21T21:13:53.167Z,15.91
2023-05-21T21:16:19.766Z,15.89
2023-05-21T21:18:47.023Z,15.87
2023-05-21T21:21:13.897Z,15.87
2023-05-21T21:23:40.546Z,15.85
2023-05-21T21:26:07.191Z,15.82
2023-05-21T21:28:33.945Z,15.76
2023-05-21T21:31:00.689Z,15.74
2023-05-21T21:33:28.400Z,15.75
2023-05-21T21:35:55.177Z,15.72
2023-05-21T21:38:21.779Z,15.70
2023-05-21T21:40:48.422Z,15.74
2023-05-21T21:43:15.015Z,15.70
2023-05-21T21:45:41.645Z,15.72
2023-05-21T21:48:08.297Z,15.73
2023-05-21T21:50:34.892Z,15.70
2023-05-21T21:53:03.567Z,15.67
2023-05-21T21:55:30.315Z,15.69
2023-05-21T21:57:56.928Z,15.67
2023-05-21T22:00:26.599Z,15.61
2023-05-21T22:02:53.930Z,15.61
2023-05-21T22:05:20.935Z,15.56
2023-05-21T22:07:47.851Z,15.57
2023-05-21T22:10:18.117Z,15.53
2023-05-21T22:12:45.948Z,15.51
2023-05-21T22:15:19.740Z,15.51
2023-05-21T22:17:48.349Z,15.50
2023-05-21T22:20:15.109Z,15.46
2023-05-21T22:22:41.621Z,15.41
2023-05-21T22:25:08.531Z,15.41
2023-05-21T22:27:35.026Z,15.36
2023-05-21T22:30:01.626Z,15.37
2023-05-21T22:32:28.110Z,15.33
2023-05-21T22:34:54.655Z,15.31
2023-05-21T22:37:21.266Z,15.32
2023-05-21T22:39:47.789Z,15.26
2023-05-21T22:42:14.474Z,15.29
2023-05-21T22:44:41.006Z,15.31
2023-05-21T22:47:09.460Z,15.27
2023-05-21T22:49:38.072Z,15.22
2023-05-21T22:52:06.233Z,15.21
2023-05-21T22:54:33.029Z,15.25
2023-05-21T22:57:01.176Z,15.25
2023-05-21T22:59:32.267Z,15.25
2023-05-21T23:01:59.183Z,15.24
2023-05-21T23:04:42.745Z,15.22
2023-05-21T23:07:10.546Z,15.20
2023-05-21T23:09:37.075Z,15.23
2023-05-21T23:12:04.062Z,15.23
2023-05-21T23:14:30.791Z,15.27
2023-05-21T23:17:02.048Z,15.27
2023-05-21T23:19:29.399Z,15.27
2023-05-21T23:21:56.366Z,15.33
2023-05-21T23:24:23.144Z,15.37
2023-05-21T23:26:49.826Z,15.40
2023-05-21T23:29:16.614Z,15.42
2023-05-21T23:31:43.597Z,15.39
2023-05-21T23:34:10.291Z,15.37
2023-05-21T23:36:36.798Z,15.41
2023-05-21T23:39:03.546Z,15.41
2023-05-21T23:41:30.143Z,15.39
2023-05-21T23:43:56.659Z,15.35
2023-05-21T23:46:23.293Z,15.30
2023-05-21T23:48:49.931Z,15.26
2023-05-21T23:51:18.258Z,15.19
2023-05-21T23:53:45.161Z,15.11
2023-05-21T23:56:11.621Z,15.06
2023-05-21T23:58:38.114Z,15.05
